Time;durP1;ratioP1;P1;durP2;ratioP2;P2;SDS_P1;SDS_P2;PMS_P1;PMS_P2;Temp;Humidity;BMP_temperature;BMP_pressure;BME280_temperature;BME280_humidity;BME280_pressure;Samples;Min_cycle;Max_cycle;Signal;HPM_P1;HPM_P2
2023/05/11 00:01:32;;;;;;;36.10;17.05;;;12.90;95.80;;;;;;6181468;22;93767;-80
2023/05/11 00:03:59;;;;;;;32.97;17.52;;;12.90;95.80;;;;;;6181939;22;93181;-80
2023/05/11 00:06:24;;;;;;;28.02;16.15;;;12.90;95.80;;;;;;6182991;22;92183;-80
2023/05/11 00:08:50;;;;;;;28.80;16.33;;;12.90;95.80;;;;;;6155236;22;96650;-80
2023/05/11 00:11:17;;;;;;;38.05;17.67;;;12.90;95.70;;;;;;6181721;22;92961;-80
2023/05/11 00:13:43;;;;;;;36.75;18.25;;;12.90;95.80;;;;;;6155198;22;92833;-80
2023/05/11 00:16:09;;;;;;;35.08;17.00;;;12.90;95.90;;;;;;6181992;22;92543;-80
2023/05/11 00:18:35;;;;;;;31.95;16.30;;;12.90;95.90;;;;;;6182730;22;92423;-80
2023/05/11 00:21:01;;;;;;;34.58;17.60;;;12.90;95.80;;;;;;6154836;22;95445;-80
2023/05/11 00:23:27;;;;;;;34.10;17.42;;;12.80;96.10;;;;;;6154845;22;92603;-80
2023/05/11 00:25:53;;;;;;;35.92;17.13;;;12.80;96.10;;;;;;6154504;22;92503;-80
2023/05/11 00:28:18;;;;;;;37.58;18.50;;;12.80;96.10;;;;;;6182040;22;94883;-80
2023/05/11 00:30:44;;;;;;;34.17;18.75;;;12.80;96.20;;;;;;6156124;22;97617;-80
2023/05/11 00:33:10;;;;;;;33.10;17.83;;;12.80;96.30;;;;;;6182249;22;92171;-80
2023/05/11 00:35:36;;;;;;;35.53;18.05;;;12.80;96.40;;;;;;6182223;22;92650;-80
2023/05/11 00:38:02;;;;;;;32.60;17.42;;;12.80;96.60;;;;;;6182152;22;92539;-79
2023/05/11 00:40:29;;;;;;;31.33;18.02;;;12.80;96.60;;;;;;6153831;22;96531;-80
2023/05/11 00:42:55;;;;;;;35.85;16.95;;;12.70;96.60;;;;;;6181221;22;92584;-78
2023/05/11 00:45:21;;;;;;;33.33;18.45;;;12.70;96.50;;;;;;6182977;22;91792;-80
2023/05/11 00:47:46;;;;;;;34.72;19.38;;;12.70;96.70;;;;;;6181536;22;93535;-80
2023/05/11 00:50:12;;;;;;;37.97;20.23;;;12.70;96.60;;;;;;6154136;22;96034;-79
2023/05/11 00:52:38;;;;;;;38.88;19.60;;;12.70;96.70;;;;;;6181336;22;93096;-80
2023/05/11 00:55:04;;;;;;;32.95;19.65;;;12.70;96.70;;;;;;6181335;22;92484;-79
2023/05/11 00:57:32;;;;;;;30.23;17.23;;;12.70;96.90;;;;;;6155219;22;96956;-80
2023/05/11 01:00:00;;;;;;;35.22;19.40;;;12.70;96.80;;;;;;6154467;22;96252;-79
2023/05/11 01:02:26;;;;;;;33.80;19.02;;;12.70;96.90;;;;;;6181423;22;92464;-79
2023/05/11 01:04:51;;;;;;;34.08;19.00;;;12.70;96.80;;;;;;6182357;22;92353;-80
2023/05/11 01:07:24;;;;;;;33.65;17.50;;;12.70;96.80;;;;;;6156595;22;94697;-79
2023/05/11 01:09:50;;;;;;;30.70;18.25;;;12.70;96.70;;;;;;6183882;22;93187;-80
2023/05/11 01:12:29;;;;;;;28.23;18.08;;;12.70;96.70;;;;;;6184711;22;92520;-80
2023/05/11 01:15:15;;;;;;;29.23;17.42;;;12.60;96.70;;;;;;6157803;22;92762;-79
2023/05/11 01:17:50;;;;;;;30.17;15.68;;;12.60;96.70;;;;;;6182218;22;94456;-80
2023/05/11 01:20:20;;;;;;;29.98;17.30;;;12.70;96.70;;;;;;6151604;22;97025;-80
2023/05/11 01:23:04;;;;;;;21.88;15.15;;;12.60;96.70;;;;;;6151831;22;92650;-79
2023/05/11 01:25:36;;;;;;;29.85;15.52;;;12.60;96.60;;;;;;6179152;22;92518;-79
2023/05/11 01:28:11;;;;;;;30.05;17.25;;;12.60;96.70;;;;;;6178703;22;93627;-79
2023/05/11 01:31:01;;;;;;;30.25;16.35;;;12.60;96.70;;;;;;6180296;22;93862;-79
2023/05/11 01:33:32;;;;;;;22.45;13.52;;;12.60;96.70;;;;;;6183067;22;92506;-79
2023/05/11 01:36:06;;;;;;;28.35;15.43;;;12.60;96.50;;;;;;6155909;22;91863;-79
2023/05/11 01:38:36;;;;;;;28.70;14.98;;;12.60;96.60;;;;;;6182214;22;93329;-79
2023/05/11 01:41:08;;;;;;;30.02;17.20;;;12.60;96.50;;;;;;6182377;22;93942;-79
2023/05/11 01:43:36;;;;;;;34.15;17.48;;;12.60;96.60;;;;;;6169193;22;93648;-79
2023/05/11 01:46:03;;;;;;;24.88;15.10;;;12.60;96.70;;;;;;6154516;22;92613;-80
2023/05/11 01:48:34;;;;;;;30.58;15.40;;;12.60;96.60;;;;;;6182203;22;94154;-80
2023/05/11 01:51:01;;;;;;;24.75;14.65;;;12.60;96.40;;;;;;6155751;22;97184;-80
2023/05/11 01:53:30;;;;;;;21.50;14.57;;;12.60;96.40;;;;;;6181989;22;92647;-79
2023/05/11 01:55:58;;;;;;;25.77;14.93;;;12.60;96.60;;;;;;6181976;22;92715;-79
2023/05/11 01:58:25;;;;;;;33.28;16.15;;;12.60;96.50;;;;;;6182068;22;93761;-79
2023/05/11 02:00:54;;;;;;;28.05;16.50;;;12.60;96.50;;;;;;6183200;22;94247;-80
2023/05/11 02:03:20;;;;;;;29.88;16.48;;;12.50;96.50;;;;;;6155282;22;92700;-79
2023/05/11 02:05:48;;;;;;;28.98;15.55;;;12.50;96.80;;;;;;6155406;22;92344;-80
2023/05/11 02:08:15;;;;;;;27.60;15.18;;;12.50;96.60;;;;;;6180331;22;94429;-79
2023/05/11 02:10:41;;;;;;;31.77;15.98;;;12.50;96.80;;;;;;6181823;22;94367;-79
2023/05/11 02:13:09;;;;;;;31.27;17.13;;;12.50;96.70;;;;;;6155694;22;92382;-79
2023/05/11 02:15:40;;;;;;;28.58;16.02;;;12.50;96.70;;;;;;6183329;22;92171;-79
2023/05/11 02:18:11;;;;;;;30.58;16.38;;;12.40;96.60;;;;;;6154630;22;96652;-80
2023/05/11 02:20:40;;;;;;;39.85;17.38;;;12.40;96.70;;;;;;6154962;22;96159;-79
2023/05/11 02:23:08;;;;;;;32.08;17.20;;;12.40;96.90;;;;;;6182572;22;92556;-79
2023/05/11 02:25:35;;;;;;;29.17;16.38;;;12.40;96.90;;;;;;6156424;22;91761;-80
2023/05/11 02:28:01;;;;;;;33.25;17.48;;;12.40;96.90;;;;;;6155202;22;95347;-79
2023/05/11 02:30:30;;;;;;;27.95;16.83;;;12.40;97.00;;;;;;6155923;22;96463;-80
2023/05/11 02:32:59;;;;;;;28.70;17.02;;;12.40;97.00;;;;;;6154309;22;93660;-80
2023/05/11 02:35:27;;;;;;;25.83;16.13;;;12.40;96.90;;;;;;6154765;22;92501;-79
2023/05/11 02:37:56;;;;;;;30.52;17.80;;;12.40;96.90;;;;;;6182002;22;93242;-80
2023/05/11 02:40:29;;;;;;;29.80;17.30;;;12.40;96.70;;;;;;6155061;22;95021;-80
2023/05/11 02:43:06;;;;;;;25.67;15.35;;;12.30;96.70;;;;;;6181887;22;92261;-80
2023/05/11 02:45:33;;;;;;;27.50;16.73;;;12.30;96.60;;;;;;6183996;22;92511;-80
2023/05/11 02:48:04;;;;;;;35.75;17.98;;;12.30;96.70;;;;;;6155781;22;95200;-80
2023/05/11 02:50:32;;;;;;;31.00;17.13;;;12.30;97.00;;;;;;6155943;22;95843;-79
2023/05/11 02:53:02;;;;;;;30.48;18.25;;;12.30;97.00;;;;;;6155477;22;92525;-79
2023/05/11 02:55:29;;;;;;;26.33;16.33;;;12.20;97.10;;;;;;6154876;22;92708;-79
2023/05/11 02:57:55;;;;;;;39.22;20.38;;;12.20;97.00;;;;;;6154652;22;96599;-79
2023/05/11 03:00:20;;;;;;;30.40;17.38;;;12.20;97.10;;;;;;6155817;22;97308;-80
2023/05/11 03:02:47;;;;;;;36.88;19.50;;;12.20;96.90;;;;;;6155972;22;92468;-79
2023/05/11 03:05:12;;;;;;;38.10;18.85;;;12.20;97.10;;;;;;6154916;22;92645;-79
2023/05/11 03:07:38;;;;;;;43.97;20.30;;;12.20;97.30;;;;;;6155365;22;96300;-80
2023/05/11 03:10:05;;;;;;;37.08;20.35;;;12.20;97.30;;;;;;6155270;22;96367;-79
2023/05/11 03:12:32;;;;;;;42.22;20.25;;;12.20;97.30;;;;;;6183166;22;92442;-80
2023/05/11 03:14:59;;;;;;;36.92;19.02;;;12.10;97.40;;;;;;6156515;22;91864;-80
2023/05/11 03:17:27;;;;;;;34.17;19.08;;;12.10;97.30;;;;;;6155107;22;96382;-79
2023/05/11 03:19:54;;;;;;;38.75;19.25;;;12.10;97.40;;;;;;6182047;22;93676;-79
2023/05/11 03:22:22;;;;;;;37.30;19.77;;;12.10;97.40;;;;;;6181989;22;93448;-80
2023/05/11 03:24:49;;;;;;;37.40;17.88;;;12.10;97.40;;;;;;6183504;22;92354;-79
2023/05/11 03:27:16;;;;;;;34.10;17.77;;;12.00;97.30;;;;;;6154673;22;96615;-79
2023/05/11 03:29:44;;;;;;;38.13;18.13;;;12.00;97.40;;;;;;6182229;22;93231;-79
2023/05/11 03:32:10;;;;;;;30.90;16.45;;;12.00;97.40;;;;;;6155618;22;92760;-79
2023/05/11 03:34:36;;;;;;;30.35;13.80;;;12.00;97.20;;;;;;6154632;22;92818;-79
2023/05/11 03:37:04;;;;;;;38.38;18.27;;;12.00;97.20;;;;;;6154548;22;96412;-80
2023/05/11 03:39:32;;;;;;;32.00;16.80;;;12.00;97.30;;;;;;6183654;22;92089;-79
2023/05/11 03:41:59;;;;;;;37.38;16.30;;;12.00;97.40;;;;;;6155305;22;92210;-79
2023/05/11 03:44:26;;;;;;;31.30;15.65;;;12.00;97.20;;;;;;6155238;22;92270;-80
2023/05/11 03:46:54;;;;;;;35.08;16.10;;;11.90;97.30;;;;;;6154411;22;97710;-80
2023/05/11 03:49:20;;;;;;;35.90;16.02;;;11.90;97.30;;;;;;6154912;22;97205;-79
2023/05/11 03:51:47;;;;;;;33.10;16.40;;;11.80;97.10;;;;;;6183280;22;92417;-80
2023/05/11 03:54:13;;;;;;;33.40;16.30;;;11.80;97.30;;;;;;6182405;22;93340;-79
2023/05/11 03:56:39;;;;;;;31.73;16.30;;;11.70;97.30;;;;;;6181634;22;94065;-80
2023/05/11 03:59:06;;;;;;;30.73;16.90;;;11.70;97.40;;;;;;6154509;22;96557;-79
2023/05/11 04:01:32;;;;;;;28.73;16.13;;;11.60;97.50;;;;;;6155665;22;92145;-80
2023/05/11 04:03:58;;;;;;;32.97;17.00;;;11.60;97.50;;;;;;6182759;22;91728;-80
2023/05/11 04:06:23;;;;;;;37.58;17.88;;;11.60;97.50;;;;;;6182585;22;94317;-79
2023/05/11 04:08:49;;;;;;;25.85;15.35;;;11.50;97.60;;;;;;6182592;22;93070;-79
2023/05/11 04:11:15;;;;;;;31.40;16.90;;;11.50;97.50;;;;;;6180572;22;93463;-80
2023/05/11 04:13:41;;;;;;;26.13;16.15;;;11.40;97.70;;;;;;6182477;22;92381;-80
2023/05/11 04:16:07;;;;;;;30.33;16.25;;;11.40;97.70;;;;;;6154872;22;96818;-80
2023/05/11 04:18:33;;;;;;;27.95;16.08;;;11.40;97.70;;;;;;6155602;22;95174;-80
2023/05/11 04:21:00;;;;;;;31.60;14.48;;;11.30;97.60;;;;;;6154570;22;92508;-80
2023/05/11 04:23:25;;;;;;;26.13;14.85;;;11.30;97.40;;;;;;6181549;22;92563;-80
2023/05/11 04:25:55;;;;;;;24.85;14.35;;;11.30;97.40;;;;;;6154713;22;96541;-80
2023/05/11 04:28:22;;;;;;;22.70;13.15;;;11.20;97.30;;;;;;6155202;22;96462;-80
2023/05/11 04:30:56;;;;;;;29.40;15.57;;;11.20;97.20;;;;;;6156097;22;92324;-80
2023/05/11 04:33:22;;;;;;;28.02;15.48;;;11.20;97.40;;;;;;6154943;22;93513;-80
2023/05/11 04:35:52;;;;;;;31.05;16.35;;;11.20;97.60;;;;;;6154106;22;97828;-79
2023/05/11 04:38:19;;;;;;;24.10;15.88;;;11.20;97.60;;;;;;6155278;22;96732;-80
2023/05/11 04:40:46;;;;;;;28.40;16.25;;;11.20;97.70;;;;;;6183373;22;92068;-79
2023/05/11 04:43:13;;;;;;;26.60;14.43;;;11.30;97.70;;;;;;6155743;22;92434;-80
2023/05/11 04:45:38;;;;;;;29.98;16.38;;;11.30;97.60;;;;;;6184759;22;92666;-80
2023/05/11 04:48:05;;;;;;;35.97;17.00;;;11.40;97.60;;;;;;6183105;22;93320;-80
2023/05/11 04:50:31;;;;;;;32.00;17.67;;;11.40;97.60;;;;;;6156485;22;92365;-80
2023/05/11 04:52:57;;;;;;;31.50;16.88;;;11.50;97.80;;;;;;6184250;22;91940;-80
2023/05/11 04:55:22;;;;;;;28.98;15.95;;;11.60;97.70;;;;;;6182322;22;92817;-80
2023/05/11 04:57:48;;;;;;;26.95;15.32;;;11.70;97.70;;;;;;6183030;22;93458;-80
2023/05/11 05:00:14;;;;;;;25.27;14.43;;;11.80;97.70;;;;;;6155043;22;93554;-79
2023/05/11 05:02:40;;;;;;;29.23;14.30;;;11.80;97.70;;;;;;6183032;22;92509;-80
2023/05/11 05:05:06;;;;;;;30.92;14.88;;;11.80;97.50;;;;;;6155489;22;95457;-80
2023/05/11 05:07:31;;;;;;;31.83;14.65;;;11.90;97.50;;;;;;6182600;22;93461;-79
2023/05/11 05:09:57;;;;;;;28.13;14.38;;;12.00;97.40;;;;;;6182853;22;92604;-79
2023/05/11 05:12:23;;;;;;;33.50;15.68;;;12.00;97.00;;;;;;6184101;22;92288;-79
2023/05/11 05:14:48;;;;;;;27.45;14.88;;;12.00;97.10;;;;;;6155759;22;96279;-79
2023/05/11 05:17:14;;;;;;;26.10;14.25;;;12.10;97.10;;;;;;6182162;22;93403;-80
2023/05/11 05:19:40;;;;;;;38.25;15.35;;;12.10;97.00;;;;;;6182948;22;92045;-79
2023/05/11 05:22:05;;;;;;;27.70;15.10;;;12.10;96.90;;;;;;6156828;22;92461;-80
2023/05/11 05:24:31;;;;;;;33.17;15.93;;;12.10;96.80;;;;;;6183184;22;94394;-79
2023/05/11 05:26:57;;;;;;;37.00;16.27;;;12.10;96.60;;;;;;6155874;22;97324;-79
2023/05/11 05:29:23;;;;;;;32.80;15.80;;;12.20;96.60;;;;;;6183240;22;92469;-80
2023/05/11 05:31:48;;;;;;;34.55;16.23;;;12.20;96.50;;;;;;6156430;22;92665;-80
2023/05/11 05:34:14;;;;;;;35.97;16.70;;;12.30;96.60;;;;;;6182075;22;93206;-80
2023/05/11 05:36:40;;;;;;;38.38;17.48;;;12.30;96.40;;;;;;6183728;22;93773;-79
2023/05/11 05:39:10;;;;;;;39.53;18.38;;;12.30;95.90;;;;;;6182439;22;92633;-80
2023/05/11 05:41:36;;;;;;;38.90;18.83;;;12.30;96.20;;;;;;6155493;22;91647;-80
2023/05/11 05:44:02;;;;;;;38.47;18.58;;;12.30;96.50;;;;;;6157451;22;95948;-81
2023/05/11 05:46:28;;;;;;;40.13;18.92;;;12.30;96.10;;;;;;6184350;22;93262;-79
2023/05/11 05:48:54;;;;;;;50.20;20.50;;;12.30;96.10;;;;;;6181126;22;93638;-79
2023/05/11 05:51:21;;;;;;;48.03;23.00;;;12.30;95.70;;;;;;6182596;22;92438;-79
2023/05/11 05:53:47;;;;;;;51.55;20.35;;;12.20;96.00;;;;;;6181749;22;92716;-79
2023/05/11 05:56:12;;;;;;;48.65;22.42;;;12.20;95.80;;;;;;6181337;22;93876;-79
2023/05/11 05:58:38;;;;;;;53.50;22.30;;;12.30;95.90;;;;;;6158568;22;92465;-80
2023/05/11 06:01:04;;;;;;;46.17;22.52;;;12.30;95.70;;;;;;6157395;22;92448;-80
2023/05/11 06:03:30;;;;;;;44.92;22.13;;;12.30;95.90;;;;;;6185724;22;93883;-79
2023/05/11 06:05:55;;;;;;;49.78;22.02;;;12.40;95.40;;;;;;6190777;22;92349;-81
2023/05/11 06:08:21;;;;;;;44.88;20.67;;;12.30;95.50;;;;;;6176636;22;92539;-81
2023/05/11 06:10:47;;;;;;;48.65;22.45;;;12.30;95.50;;;;;;6163895;22;92103;-80
2023/05/11 06:13:13;;;;;;;44.75;20.95;;;12.30;95.60;;;;;;6134381;22;97697;-81
2023/05/11 06:15:39;;;;;;;42.10;21.90;;;12.40;95.70;;;;;;6159571;22;93794;-80
2023/05/11 06:18:04;;;;;;;50.13;21.10;;;12.40;95.80;;;;;;6152467;22;92162;-80
2023/05/11 06:20:31;;;;;;;42.08;19.90;;;12.40;95.60;;;;;;6150288;22;92631;-80
2023/05/11 06:22:56;;;;;;;44.50;21.38;;;12.40;95.40;;;;;;6151821;22;92485;-80
2023/05/11 06:25:22;;;;;;;47.10;20.75;;;12.40;95.50;;;;;;6124688;22;95890;-80
2023/05/11 06:27:48;;;;;;;53.28;23.67;;;12.40;95.60;;;;;;6156351;22;92352;-81
2023/05/11 06:30:14;;;;;;;55.28;24.92;;;12.40;95.60;;;;;;6157639;22;91721;-83
2023/05/11 06:32:43;;;;;;;56.58;23.40;;;12.40;95.60;;;;;;6133027;22;96097;-81
2023/05/11 06:35:22;;;;;;;53.33;25.10;;;12.40;95.70;;;;;;6126002;22;94872;-80
2023/05/11 06:39:08;;;;;;;52.28;23.92;;;12.40;95.20;;;;;;6147784;22;93485;-81
2023/05/11 06:41:37;;;;;;;49.88;22.52;;;12.40;95.40;;;;;;6162935;22;92422;-81
2023/05/11 06:44:06;;;;;;;50.65;20.45;;;12.30;95.60;;;;;;6149133;22;95471;-81
2023/05/11 06:46:35;;;;;;;51.05;19.88;;;12.40;95.20;;;;;;6165722;22;93421;-81
2023/05/11 06:49:00;;;;;;;46.25;19.08;;;12.40;95.30;;;;;;6124279;22;92099;-81
2023/05/11 06:51:38;;;;;;;;;;;;;;;;;;;;;
2023/05/11 06:54:04;;;;;;;38.05;18.38;;;12.30;95.30;;;;;;6158199;22;121628;-81
2023/05/11 06:56:32;;;;;;;44.05;18.40;;;12.30;95.50;;;;;;6132065;22;96695;-81
2023/05/11 06:59:04;;;;;;;35.40;16.92;;;12.30;95.20;;;;;;6169229;22;92458;-81
2023/05/11 07:01:31;;;;;;;38.67;16.90;;;12.30;95.30;;;;;;6156274;22;92677;-81
2023/05/11 07:03:57;;;;;;;41.95;16.48;;;12.30;95.30;;;;;;6155178;22;96251;-81
2023/05/11 07:06:30;;;;;;;33.33;15.93;;;12.30;95.30;;;;;;6159692;22;93355;-81
2023/05/11 07:08:56;;;;;;;41.75;16.50;;;12.30;95.40;;;;;;6179519;22;92125;-80
2023/05/11 07:11:22;;;;;;;47.92;16.75;;;12.30;95.20;;;;;;6132639;22;92678;-80
2023/05/11 07:13:47;;;;;;;39.90;16.80;;;12.40;95.10;;;;;;6156433;22;92413;-81
2023/05/11 07:16:16;;;;;;;36.55;17.55;;;12.40;94.90;;;;;;6166295;22;93249;-81
2023/05/11 07:18:42;;;;;;;34.53;14.85;;;12.40;94.80;;;;;;6156312;22;92494;-81
2023/05/11 07:21:08;;;;;;;32.85;15.63;;;12.40;94.90;;;;;;6155303;22;91318;-81
2023/05/11 07:23:39;;;;;;;34.50;13.80;;;12.40;94.90;;;;;;6158892;22;93592;-81
2023/05/11 07:26:07;;;;;;;30.10;13.35;;;12.40;94.90;;;;;;6160881;22;92982;-82
2023/05/11 07:31:12;;;;;;;32.28;13.80;;;12.60;94.70;;;;;;6121672;22;93538;-81
2023/05/11 07:33:47;;;;;;;34.00;13.75;;;12.60;94.70;;;;;;6143143;22;96062;-82
2023/05/11 07:36:16;;;;;;;30.95;13.82;;;12.60;94.50;;;;;;6080489;22;95839;-81
2023/05/11 07:38:42;;;;;;;35.10;15.45;;;12.70;94.00;;;;;;6127475;23;92474;-79
2023/05/11 07:41:07;;;;;;;40.08;18.13;;;12.70;94.20;;;;;;6094411;23;92974;-79
2023/05/11 07:43:33;;;;;;;40.38;17.83;;;12.60;94.00;;;;;;6121903;23;92807;-79
2023/05/11 07:45:59;;;;;;;42.85;18.20;;;12.60;94.40;;;;;;6120391;23;92396;-80
2023/05/11 07:48:33;;;;;;;42.70;19.15;;;12.60;93.90;;;;;;6121694;22;92349;-81
2023/05/11 07:51:02;;;;;;;42.60;18.30;;;12.60;94.10;;;;;;6170477;22;92098;-81
2023/05/11 07:53:28;;;;;;;41.22;20.15;;;12.60;94.20;;;;;;6163389;22;95098;-80
2023/05/11 07:55:53;;;;;;;46.78;22.13;;;12.60;94.10;;;;;;6159939;22;96924;-81
2023/05/11 07:58:19;;;;;;;60.65;29.52;;;12.60;94.40;;;;;;6162051;22;92194;-81
2023/05/11 08:01:06;;;;;;;58.17;27.75;;;12.60;94.00;;;;;;6117371;22;93616;-81
2023/05/11 08:03:36;;;;;;;66.63;28.70;;;12.60;93.70;;;;;;6193263;22;95572;-81
2023/05/11 08:11:13;;;;;;;60.95;30.15;;;12.60;93.80;;;;;;6175897;22;91446;-81
2023/05/11 08:21:32;;;;;;;53.75;23.35;;;12.60;93.50;;;;;;6192683;22;93327;-81
2023/05/11 08:24:00;;;;;;;40.90;18.73;;;12.60;93.50;;;;;;6171457;22;95841;-81
2023/05/11 08:26:35;;;;;;;40.78;16.65;;;12.60;93.60;;;;;;6156164;22;94925;-81
2023/05/11 08:29:04;;;;;;;38.40;15.85;;;12.60;93.60;;;;;;6182581;22;92400;-81
2023/05/11 08:31:30;;;;;;;35.00;15.05;;;12.60;93.90;;;;;;6191529;22;92379;-80
2023/05/11 08:33:56;;;;;;;38.13;16.17;;;12.60;93.10;;;;;;6185277;22;93086;-80
2023/05/11 08:36:22;;;;;;;33.95;16.13;;;12.60;93.50;;;;;;6146813;22;96751;-80
2023/05/11 08:38:48;;;;;;;30.23;15.60;;;12.60;93.50;;;;;;6184926;22;92182;-81
2023/05/11 08:41:14;;;;;;;32.03;15.48;;;12.80;93.10;;;;;;6185670;22;92798;-81
2023/05/11 08:43:40;;;;;;;34.55;14.48;;;12.90;92.70;;;;;;6159940;22;97035;-81
2023/05/11 08:46:07;;;;;;;31.50;15.52;;;13.00;92.50;;;;;;6184358;22;93786;-78
2023/05/11 08:48:34;;;;;;;32.28;16.17;;;13.20;92.40;;;;;;6182725;22;92453;-79
2023/05/11 08:51:02;;;;;;;34.53;16.58;;;13.40;91.80;;;;;;6182111;22;92809;-78
2023/05/11 08:53:27;;;;;;;27.90;13.35;;;13.50;92.10;;;;;;6154990;22;96436;-79
2023/05/11 08:56:00;;;;;;;22.27;9.85;;;13.60;91.10;;;;;;6157679;22;96282;-80
2023/05/11 08:58:31;;;;;;;20.00;9.07;;;13.50;91.30;;;;;;6157959;22;92242;-81
2023/05/11 09:00:57;;;;;;;19.33;9.07;;;13.50;91.00;;;;;;6185380;22;91771;-80
2023/05/11 09:03:23;;;;;;;24.20;9.60;;;13.60;90.90;;;;;;6156841;22;96322;-79
2023/05/11 09:05:50;;;;;;;19.50;9.35;;;13.70;91.00;;;;;;6159949;22;95089;-79
2023/05/11 09:08:17;;;;;;;15.40;7.07;;;13.90;90.30;;;;;;6184804;22;93829;-79
2023/05/11 09:10:43;;;;;;;14.02;7.40;;;14.10;88.70;;;;;;6186520;22;92341;-79
2023/05/11 09:13:10;;;;;;;15.38;6.57;;;14.20;87.40;;;;;;6157342;22;96533;-79
2023/05/11 09:15:36;;;;;;;17.20;5.10;;;14.30;86.90;;;;;;6153117;22;96150;-78
2023/05/11 09:18:02;;;;;;;13.68;5.72;;;14.30;86.50;;;;;;6153502;22;92196;-77
2023/05/11 09:20:32;;;;;;;17.65;6.90;;;14.30;86.60;;;;;;6182312;22;92711;-78
2023/05/11 09:22:58;;;;;;;15.18;6.20;;;14.30;86.60;;;;;;6152033;22;96591;-78
2023/05/11 09:25:25;;;;;;;19.55;6.80;;;14.40;86.50;;;;;;6184765;22;93197;-79
2023/05/11 09:27:50;;;;;;;12.13;6.05;;;14.40;88.20;;;;;;6194495;22;92310;-81
2023/05/11 09:30:28;;;;;;;13.52;5.93;;;14.50;87.30;;;;;;6173198;22;92695;-80
2023/05/11 09:32:59;;;;;;;11.77;5.30;;;14.60;87.70;;;;;;6119588;22;97353;-80
2023/05/11 09:35:29;;;;;;;14.23;5.97;;;14.50;85.70;;;;;;6188925;22;94202;-80
2023/05/11 09:38:11;;;;;;;14.52;6.60;;;14.40;86.80;;;;;;6187503;22;92023;-81
2023/05/11 09:40:41;;;;;;;15.05;4.93;;;14.50;86.90;;;;;;6192421;22;92690;-81
2023/05/11 09:48:57;;;;;;;13.85;3.92;;;14.60;86.20;;;;;;6165064;22;93717;-84
2023/05/11 09:52:14;;;;;;;11.40;4.28;;;14.80;85.00;;;;;;6201697;22;90517;-80
2023/05/11 09:59:52;;;;;;;13.73;4.32;;;15.00;82.80;;;;;;6189220;22;94080;-80
2023/05/11 10:02:29;;;;;;;11.57;4.07;;;15.00;81.60;;;;;;6199899;22;92310;-80
2023/05/11 10:04:59;;;;;;;10.02;4.57;;;15.10;84.50;;;;;;6193576;22;93382;-80
2023/05/11 10:07:32;;;;;;;17.02;4.57;;;15.20;82.40;;;;;;6198217;22;92348;-81
2023/05/11 10:10:10;;;;;;;10.73;4.13;;;15.20;81.80;;;;;;6200669;22;92026;-81
2023/05/11 10:12:38;;;;;;;16.60;5.30;;;15.10;82.40;;;;;;6175704;22;92564;-81
2023/05/11 10:15:08;;;;;;;10.50;4.20;;;15.10;84.20;;;;;;6180314;22;92716;-80
2023/05/11 10:17:35;;;;;;;12.90;4.70;;;15.30;83.30;;;;;;6179429;22;93330;-81
2023/05/11 10:20:03;;;;;;;15.70;5.00;;;15.30;84.20;;;;;;6164777;22;92533;-80
2023/05/11 10:22:29;;;;;;;17.83;6.60;;;15.50;84.00;;;;;;6167861;22;93154;-80
2023/05/11 10:24:56;;;;;;;12.25;4.03;;;15.60;83.00;;;;;;6154319;22;97576;-80
2023/05/11 10:27:23;;;;;;;8.40;4.63;;;15.70;79.70;;;;;;6191415;22;93998;-81
2023/05/11 10:29:51;;;;;;;7.68;4.28;;;15.70;82.20;;;;;;6169439;22;92938;-80
2023/05/11 10:37:57;;;;;;;13.35;5.10;;;15.70;83.40;;;;;;6182720;22;92556;-81
2023/05/11 10:40:53;;;;;;;10.38;4.47;;;15.90;80.30;;;;;;6176612;22;92237;-82
2023/05/11 10:51:58;;;;;;;12.40;6.55;;;15.90;81.30;;;;;;6151217;22;94343;-80
2023/05/11 10:54:49;;;;;;;14.05;6.90;;;16.20;78.40;;;;;;6129219;22;93765;-80
2023/05/11 10:57:36;;;;;;;15.02;6.32;;;16.80;79.30;;;;;;6183363;22;94223;-80
2023/05/11 11:00:08;;;;;;;11.23;5.30;;;17.10;76.00;;;;;;6183341;22;92968;-77
2023/05/11 11:02:34;;;;;;;15.60;6.82;;;17.20;77.50;;;;;;6156209;22;92650;-78
2023/05/11 11:05:04;;;;;;;19.65;8.32;;;17.60;74.60;;;;;;6183336;22;92441;-78
2023/05/11 11:07:30;;;;;;;15.73;8.45;;;17.70;75.20;;;;;;6183666;22;93440;-78
2023/05/11 11:10:06;;;;;;;14.10;7.85;;;17.70;73.10;;;;;;6183035;22;92303;-78
2023/05/11 11:12:35;;;;;;;15.15;7.93;;;17.80;73.20;;;;;;6156416;22;92673;-78
2023/05/11 11:15:05;;;;;;;14.45;8.40;;;17.80;72.90;;;;;;6183603;22;92321;-78
2023/05/11 11:17:34;;;;;;;13.52;7.93;;;18.00;75.10;;;;;;6182637;22;94868;-79
2023/05/11 11:20:06;;;;;;;14.10;7.00;;;18.30;71.60;;;;;;6183032;22;93602;-84
2023/05/11 11:22:37;;;;;;;18.08;8.07;;;18.50;71.60;;;;;;6158030;22;92582;-84
2023/05/11 11:25:07;;;;;;;17.00;7.40;;;18.30;69.00;;;;;;6155703;22;92389;-81
2023/05/11 11:27:39;;;;;;;14.02;7.45;;;18.10;70.40;;;;;;6182676;22;94133;-80
2023/05/11 11:30:25;;;;;;;13.85;6.90;;;18.10;70.10;;;;;;6182458;22;94045;-79
2023/05/11 11:32:53;;;;;;;17.58;7.35;;;18.00;72.50;;;;;;6180901;22;92256;-80
2023/05/11 11:35:41;;;;;;;10.23;6.93;;;18.10;73.20;;;;;;6155154;22;91985;-80
2023/05/11 11:38:07;;;;;;;15.13;7.38;;;18.20;71.60;;;;;;6182209;22;92678;-79
2023/05/11 11:40:48;;;;;;;15.20;7.68;;;18.30;72.40;;;;;;6183348;22;93320;-80
2023/05/11 11:43:16;;;;;;;17.48;8.27;;;18.50;71.30;;;;;;6155394;22;93398;-79
2023/05/11 11:45:55;;;;;;;22.80;7.57;;;18.70;72.20;;;;;;6155345;22;92224;-80
2023/05/11 11:48:21;;;;;;;15.70;7.45;;;18.70;69.20;;;;;;6154936;22;96694;-80
2023/05/11 11:50:48;;;;;;;13.27;7.43;;;18.50;68.10;;;;;;6181466;22;94400;-79
2023/05/11 11:53:37;;;;;;;14.48;9.13;;;18.50;69.80;;;;;;6182987;22;92338;-80
2023/05/11 11:56:25;;;;;;;14.68;7.82;;;18.40;66.70;;;;;;6168274;22;92503;-80
2023/05/11 11:58:51;;;;;;;13.43;6.65;;;18.10;70.10;;;;;;6181218;22;92766;-79
2023/05/11 12:01:19;;;;;;;15.00;7.05;;;18.10;69.00;;;;;;6183542;22;94078;-79
2023/05/11 12:03:46;;;;;;;14.10;7.18;;;18.10;68.20;;;;;;6182687;22;92743;-80
2023/05/11 12:06:12;;;;;;;15.05;7.80;;;18.10;71.80;;;;;;6155137;22;92849;-79
2023/05/11 12:08:39;;;;;;;13.02;6.65;;;18.30;70.50;;;;;;6182147;22;94170;-80
2023/05/11 12:11:16;;;;;;;12.63;7.13;;;18.60;69.50;;;;;;6132139;22;97413;-79
2023/05/11 12:13:42;;;;;;;11.23;6.68;;;19.20;65.60;;;;;;6181923;22;92763;-81
2023/05/11 12:16:16;;;;;;;9.77;6.85;;;19.50;65.30;;;;;;6155288;22;92896;-81
2023/05/11 12:19:03;;;;;;;11.23;6.72;;;19.70;65.10;;;;;;6182099;22;92433;-78
2023/05/11 12:21:33;;;;;;;8.23;6.28;;;19.90;61.90;;;;;;6181792;22;96067;-78
2023/05/11 12:24:00;;;;;;;11.07;5.80;;;20.40;64.30;;;;;;6155210;22;92547;-78
2023/05/11 12:26:28;;;;;;;13.05;5.85;;;20.80;61.90;;;;;;6182340;22;91837;-78
2023/05/11 12:29:10;;;;;;;9.88;6.35;;;21.20;61.90;;;;;;6181505;22;93428;-78
2023/05/11 12:31:39;;;;;;;11.10;6.05;;;21.50;64.90;;;;;;6183139;22;92948;-78
2023/05/11 12:34:05;;;;;;;12.20;6.30;;;21.90;59.90;;;;;;6182005;22;93100;-78
2023/05/11 12:36:33;;;;;;;11.70;5.95;;;22.20;58.70;;;;;;6155175;22;92579;-78
2023/05/11 12:38:59;;;;;;;12.40;5.85;;;22.40;61.80;;;;;;6181911;22;93564;-78
2023/05/11 12:41:26;;;;;;;10.07;5.55;;;22.90;60.80;;;;;;6181656;22;93876;-78
2023/05/11 12:43:53;;;;;;;11.68;5.55;;;23.10;55.60;;;;;;6155221;22;92823;-77
2023/05/11 12:46:19;;;;;;;11.45;5.70;;;23.10;55.30;;;;;;6154982;22;92743;-78
2023/05/11 12:48:46;;;;;;;11.38;6.20;;;22.70;55.00;;;;;;6182013;22;93150;-77
2023/05/11 12:51:12;;;;;;;9.98;5.50;;;22.80;57.80;;;;;;6182287;22;93177;-78
2023/05/11 12:53:40;;;;;;;12.45;4.90;;;23.00;56.70;;;;;;6180727;22;93571;-78
2023/05/11 12:56:06;;;;;;;13.27;5.75;;;23.20;54.60;;;;;;6154840;22;92194;-78
2023/05/11 12:58:40;;;;;;;12.02;5.07;;;23.10;54.90;;;;;;6154112;22;98939;-78
2023/05/11 13:01:08;;;;;;;9.60;5.10;;;22.80;54.40;;;;;;6183213;22;94193;-77
2023/05/11 13:03:36;;;;;;;9.25;4.63;;;22.50;55.90;;;;;;6183407;22;92610;-78
2023/05/11 13:06:10;;;;;;;8.50;4.15;;;22.70;61.10;;;;;;6155582;22;92540;-78
2023/05/11 13:08:38;;;;;;;10.07;5.45;;;23.60;60.00;;;;;;6155480;22;96697;-78
2023/05/11 13:11:24;;;;;;;10.73;4.93;;;24.50;54.70;;;;;;6181382;22;93523;-78
2023/05/11 13:13:51;;;;;;;7.88;3.75;;;24.90;51.90;;;;;;6156343;22;92530;-78
2023/05/11 13:16:27;;;;;;;9.90;5.05;;;24.60;53.80;;;;;;6157810;22;91776;-78
2023/05/11 13:19:01;;;;;;;11.60;4.97;;;24.40;51.70;;;;;;6182908;22;92705;-78
2023/05/11 13:21:28;;;;;;;8.30;4.45;;;24.20;51.30;;;;;;6183130;22;93544;-78